createdAt,value
2022-10-12T00:01:10.658Z,9.95
2022-10-12T00:03:38.866Z,10.25
2022-10-12T00:06:15.170Z,9.86
2022-10-12T00:08:45.171Z,8.60
2022-10-12T00:11:17.243Z,8.99
2022-10-12T00:13:45.175Z,9.96
2022-10-12T00:16:14.960Z,10.44
2022-10-12T00:18:43.218Z,10.79
2022-10-12T00:21:16.712Z,10.56
2022-10-12T00:23:45.661Z,9.07
2022-10-12T00:26:23.380Z,8.48
2022-10-12T00:28:59.882Z,9.33
2022-10-12T00:31:29.827Z,10.17
2022-10-12T00:34:01.613Z,10.45
2022-10-12T00:36:32.693Z,10.09
2022-10-12T00:39:01.456Z,8.50
2022-10-12T00:41:33.302Z,8.19
2022-10-12T00:44:01.406Z,9.16
2022-10-12T00:46:35.234Z,10.01
2022-10-12T00:49:20.885Z,10.66
2022-10-12T00:51:53.721Z,11.22
2022-10-12T00:54:27.319Z,11.08
2022-10-12T00:56:56.898Z,9.61
2022-10-12T00:59:32.611Z,8.29
2022-10-12T01:02:00.565Z,7.82
2022-10-12T01:04:31.716Z,8.97
2022-10-12T01:07:00.288Z,9.86
2022-10-12T01:09:29.734Z,10.31
2022-10-12T01:11:58.673Z,10.43
2022-10-12T01:14:26.660Z,9.09
2022-10-12T01:17:00.204Z,8.03
2022-10-12T01:20:09.030Z,8.86
2022-10-12T01:23:04.501Z,9.80
2022-10-12T01:25:53.205Z,10.44
2022-10-12T01:28:51.909Z,10.32
2022-10-12T01:31:49.840Z,8.62
2022-10-12T01:34:42.615Z,8.69
2022-10-12T01:37:38.844Z,9.79
2022-10-12T01:40:16.502Z,10.35
2022-10-12T01:42:45.087Z,10.02
2022-10-12T01:45:17.229Z,8.66
2022-10-12T01:47:55.014Z,8.37
2022-10-12T01:50:32.104Z,9.29
2022-10-12T01:53:23.045Z,9.91
2022-10-12T01:56:39.067Z,10.28
2022-10-12T01:59:12.845Z,9.88
2022-10-12T02:01:48.918Z,8.39
2022-10-12T02:04:44.478Z,8.05
2022-10-12T02:07:26.785Z,9.26
2022-10-12T02:09:59.233Z,9.93
2022-10-12T02:12:30.792Z,10.32
2022-10-12T02:15:03.741Z,10.52
2022-10-12T02:17:33.910Z,10.29
2022-10-12T02:20:04.016Z,8.87
2022-10-12T02:22:37.381Z,8.09
2022-10-12T02:25:11.139Z,9.12
2022-10-12T02:27:43.262Z,10.19
2022-10-12T02:30:12.127Z,10.72
2022-10-12T02:33:03.725Z,10.66
2022-10-12T02:35:41.925Z,9.08
2022-10-12T02:38:20.689Z,7.73
2022-10-12T02:40:57.773Z,7.33
2022-10-12T02:43:35.115Z,8.84
2022-10-12T02:46:05.869Z,10.18
2022-10-12T02:48:35.494Z,10.92
2022-10-12T02:51:04.024Z,10.84
2022-10-12T02:53:32.015Z,9.36
2022-10-12T02:56:03.753Z,7.95
2022-10-12T02:58:32.100Z,7.39
2022-10-12T03:01:00.059Z,8.65
2022-10-12T03:03:28.212Z,9.65
2022-10-12T03:05:56.512Z,10.14
2022-10-12T03:08:24.378Z,10.56
2022-10-12T03:10:52.243Z,10.52
2022-10-12T03:13:20.093Z,9.13
2022-10-12T03:15:47.920Z,7.80
2022-10-12T03:18:15.790Z,7.20
2022-10-12T03:20:48.195Z,8.49
2022-10-12T03:23:16.041Z,9.80
2022-10-12T03:25:43.885Z,10.54
2022-10-12T03:28:12.139Z,10.61
2022-10-12T03:30:40.292Z,9.24
2022-10-12T03:33:08.174Z,7.90
2022-10-12T03:35:36.043Z,7.33
2022-10-12T03:38:04.306Z,8.53
2022-10-12T03:40:32.160Z,9.68
2022-10-12T03:43:00.062Z,10.23
2022-10-12T03:45:27.910Z,10.31
2022-10-12T03:47:56.009Z,9.03
2022-10-12T03:50:23.840Z,7.65
2022-10-12T03:52:51.656Z,7.11
2022-10-12T03:55:19.808Z,8.47
2022-10-12T03:57:47.609Z,9.82
2022-10-12T04:00:15.776Z,10.51
2022-10-12T04:02:43.682Z,10.44
2022-10-12T04:05:11.636Z,9.10
2022-10-12T04:07:39.877Z,7.84
2022-10-12T04:10:08.238Z,7.67
2022-10-12T04:12:36.119Z,8.98
2022-10-12T04:15:04.629Z,9.97
2022-10-12T04:17:32.572Z,10.16
2022-10-12T04:20:00.375Z,8.70
2022-10-12T04:22:28.242Z,7.57
2022-10-12T04:24:56.042Z,8.41
2022-10-12T04:27:23.859Z,9.32
2022-10-12T04:29:51.745Z,9.85
2022-10-12T04:32:19.561Z,10.20
2022-10-12T04:34:47.382Z,9.84
2022-10-12T04:37:15.270Z,8.38
2022-10-12T04:39:43.143Z,7.67
2022-10-12T04:42:10.983Z,8.63
2022-10-12T04:44:38.780Z,9.43
2022-10-12T04:47:07.146Z,9.90
2022-10-12T04:49:35.029Z,9.66
2022-10-12T04:52:02.998Z,8.36
2022-10-12T04:54:32.876Z,7.60
2022-10-12T04:57:00.943Z,8.81
2022-10-12T04:59:28.860Z,10.02
2022-10-12T05:01:56.747Z,10.71
2022-10-12T05:04:24.746Z,10.75
2022-10-12T05:06:52.650Z,9.22
2022-10-12T05:09:20.522Z,7.77
2022-10-12T05:11:48.457Z,7.25
2022-10-12T05:14:16.264Z,8.59
2022-10-12T05:16:44.117Z,9.86
2022-10-12T05:19:11.946Z,10.22
2022-10-12T05:21:40.485Z,8.97
2022-10-12T05:24:08.451Z,7.61
2022-10-12T05:26:36.561Z,7.10
2022-10-12T05:29:04.451Z,8.41
2022-10-12T05:31:32.256Z,9.66
2022-10-12T05:34:00.241Z,10.37
2022-10-12T05:36:28.189Z,10.65
2022-10-12T05:38:56.065Z,9.51
2022-10-12T05:41:23.937Z,8.25
2022-10-12T05:43:53.325Z,7.74
2022-10-12T05:46:21.700Z,8.90
2022-10-12T05:48:49.522Z,10.28
2022-10-12T05:51:17.349Z,11.27
2022-10-12T05:53:45.359Z,10.95
2022-10-12T05:56:13.242Z,9.56
2022-10-12T05:58:41.193Z,8.50
2022-10-12T06:01:14.177Z,8.18
2022-10-12T06:03:42.336Z,9.68
2022-10-12T06:06:10.303Z,10.96
2022-10-12T06:08:38.174Z,11.76
2022-10-12T06:11:06.165Z,11.93
2022-10-12T06:13:34.044Z,10.72
2022-10-12T06:16:01.919Z,9.58
2022-10-12T06:18:29.891Z,9.25
2022-10-12T06:21:58.924Z,10.70
2022-10-12T06:23:45.589Z,12.32
2022-10-12T06:26:16.552Z,12.71
2022-10-12T06:28:44.478Z,11.49
2022-10-12T06:31:12.709Z,10.33
2022-10-12T06:33:40.728Z,9.91
2022-10-12T06:36:08.575Z,11.32
2022-10-12T06:38:36.522Z,12.65
2022-10-12T06:41:04.418Z,13.10
2022-10-12T06:43:32.278Z,12.09
2022-10-12T06:46:27.754Z,11.11
2022-10-12T06:48:55.651Z,10.31
2022-10-12T06:51:23.936Z,10.26
2022-10-12T06:53:55.422Z,11.85
2022-10-12T06:56:23.513Z,13.28
2022-10-12T06:58:55.938Z,13.74
2022-10-12T07:01:24.025Z,12.57
2022-10-12T07:04:00.724Z,11.42
2022-10-12T07:06:28.894Z,10.63
2022-10-12T07:09:01.257Z,10.56
2022-10-12T07:11:29.152Z,12.24
2022-10-12T07:13:58.143Z,13.71
2022-10-12T07:16:26.033Z,14.07
2022-10-12T07:18:54.051Z,12.91
2022-10-12T07:21:21.959Z,11.79
2022-10-12T07:23:49.789Z,11.48
2022-10-12T07:26:17.931Z,12.99
2022-10-12T07:28:45.898Z,14.25
2022-10-12T07:31:14.063Z,13.76
2022-10-12T07:33:41.981Z,12.56
2022-10-12T07:36:14.745Z,11.71
2022-10-12T07:38:47.209Z,11.75
2022-10-12T07:41:15.645Z,13.60
2022-10-12T07:43:43.759Z,14.97
2022-10-12T07:46:12.502Z,14.87
2022-10-12T07:48:47.221Z,13.74
2022-10-12T07:51:17.474Z,12.74
2022-10-12T07:53:45.677Z,12.61
2022-10-12T07:56:17.362Z,14.22
2022-10-12T07:58:50.128Z,15.72
2022-10-12T08:01:19.958Z,15.48
2022-10-12T08:03:50.743Z,14.35
2022-10-12T08:06:24.225Z,13.54
2022-10-12T08:08:52.254Z,13.01
2022-10-12T08:11:20.999Z,13.16
2022-10-12T08:13:48.823Z,15.09
2022-10-12T08:16:19.371Z,15.89
2022-10-12T08:18:47.328Z,14.97
2022-10-12T08:21:17.098Z,14.11
2022-10-12T08:23:45.290Z,13.60
2022-10-12T08:26:14.747Z,13.24
2022-10-12T08:28:43.321Z,13.05
2022-10-12T08:31:13.921Z,13.35
2022-10-12T08:33:41.888Z,15.24
2022-10-12T08:36:11.662Z,16.52
2022-10-12T08:38:39.672Z,16.01
2022-10-12T08:41:23.404Z,15.16
2022-10-12T08:44:06.434Z,14.58
2022-10-12T08:46:34.421Z,14.26
2022-10-12T08:49:29.510Z,14.08
2022-10-12T08:51:59.535Z,13.89
2022-10-12T08:54:31.587Z,13.78
2022-10-12T08:57:00.099Z,13.77
2022-10-12T08:59:29.661Z,13.75
2022-10-12T09:02:14.035Z,13.74
2022-10-12T09:04:56.714Z,13.75
2022-10-12T09:07:50.829Z,13.79
2022-10-12T09:10:46.303Z,13.88
2022-10-12T09:13:39.994Z,13.91
2022-10-12T09:16:24.028Z,13.96
2022-10-12T09:18:55.180Z,14.02
2022-10-12T09:21:26.182Z,14.11
2022-10-12T09:23:56.796Z,14.21
2022-10-12T09:26:36.750Z,14.32
2022-10-12T09:29:27.096Z,14.43
2022-10-12T09:32:16.143Z,14.49
2022-10-12T09:34:46.046Z,14.53
2022-10-12T09:37:23.360Z,14.57
2022-10-12T09:39:51.471Z,14.65
2022-10-12T09:42:19.319Z,14.69
2022-10-12T09:45:12.493Z,14.71
2022-10-12T09:47:40.606Z,14.77
2022-10-12T09:50:08.745Z,14.85
2022-10-12T09:52:36.684Z,14.94
2022-10-12T09:55:17.087Z,15.04
2022-10-12T09:57:54.687Z,15.09
2022-10-12T10:00:32.571Z,15.13
2022-10-12T10:03:02.451Z,15.21
2022-10-12T10:05:30.481Z,15.32
2022-10-12T10:08:20.941Z,15.41
2022-10-12T10:10:50.977Z,15.52
2022-10-12T10:13:20.046Z,15.65
2022-10-12T10:15:51.038Z,15.82
2022-10-12T10:18:25.732Z,15.99
2022-10-12T10:20:56.111Z,16.12
2022-10-12T10:23:29.137Z,16.22
2022-10-12T10:25:58.422Z,16.35
2022-10-12T10:28:30.421Z,16.49
2022-10-12T10:31:03.151Z,16.60
2022-10-12T10:33:33.384Z,16.64
2022-10-12T10:36:13.793Z,16.65
2022-10-12T10:38:56.149Z,16.68
2022-10-12T10:41:28.736Z,16.65
2022-10-12T10:43:56.595Z,16.68
2022-10-12T10:46:28.220Z,16.67
2022-10-12T10:49:06.352Z,16.68
2022-10-12T10:51:49.556Z,16.72
2022-10-12T10:54:23.081Z,16.72
2022-10-12T10:57:02.315Z,16.71
2022-10-12T11:00:19.457Z,16.67
2022-10-12T11:02:51.148Z,16.72
2022-10-12T11:05:28.245Z,16.85
2022-10-12T11:08:06.800Z,17.01
2022-10-12T11:10:45.066Z,17.15
2022-10-12T11:13:20.020Z,17.17
2022-10-12T11:16:07.945Z,17.23
2022-10-12T11:18:42.517Z,17.29
2022-10-12T11:21:22.654Z,17.37
2022-10-12T11:24:05.307Z,17.49
2022-10-12T11:26:57.026Z,17.51
2022-10-12T11:29:24.904Z,17.53
2022-10-12T11:31:59.552Z,17.65
2022-10-12T11:34:32.496Z,17.75
2022-10-12T11:37:19.908Z,17.92
2022-10-12T11:39:54.521Z,18.07
2022-10-12T11:42:32.325Z,18.17
2022-10-12T11:45:06.106Z,18.26
2022-10-12T11:47:39.365Z,18.40
2022-10-12T11:50:25.423Z,18.52
2022-10-12T11:52:55.589Z,18.58
2022-10-12T11:55:29.220Z,18.55
2022-10-12T11:58:07.442Z,18.61
2022-10-12T12:00:53.514Z,18.76
2022-10-12T12:03:31.750Z,18.91
2022-10-12T12:06:29.137Z,18.95
2022-10-12T12:09:01.090Z,19.02
2022-10-12T12:11:31.877Z,19.13
2022-10-12T12:14:21.636Z,19.07
2022-10-12T12:16:49.851Z,19.02
2022-10-12T12:19:36.386Z,19.02
2022-10-12T12:22:28.909Z,18.88
2022-10-12T12:25:10.765Z,18.77
2022-10-12T12:27:42.188Z,18.85
2022-10-12T12:30:19.190Z,18.88
2022-10-12T12:33:38.574Z,18.53
2022-10-12T12:36:09.048Z,18.28
2022-10-12T12:38:45.817Z,18.28
2022-10-12T12:41:21.914Z,18.25
2022-10-12T12:43:58.609Z,18.32
2022-10-12T12:46:52.335Z,18.37
2022-10-12T12:49:38.290Z,18.29
2022-10-12T12:52:16.723Z,18.06
2022-10-12T12:55:00.591Z,17.84
2022-10-12T12:58:16.336Z,17.74
2022-10-12T13:01:02.201Z,17.96
2022-10-12T13:03:41.851Z,18.21
2022-10-12T13:06:29.306Z,18.54
2022-10-12T13:09:06.064Z,18.79
2022-10-12T13:12:11.020Z,18.89
2022-10-12T13:14:51.138Z,19.22
2022-10-12T13:17:34.315Z,19.67
2022-10-12T13:20:15.868Z,20.10
2022-10-12T13:22:46.933Z,20.36
2022-10-12T13:25:25.702Z,20.45
2022-10-12T13:27:55.125Z,20.45
2022-10-12T13:30:51.554Z,20.45
2022-10-12T13:33:32.091Z,20.44
2022-10-12T13:36:08.742Z,20.50
2022-10-12T13:38:39.171Z,20.60
2022-10-12T13:41:14.720Z,20.62
2022-10-12T13:43:51.304Z,20.55
2022-10-12T13:46:41.035Z,20.47
2022-10-12T13:49:41.964Z,20.45
2022-10-12T13:52:12.533Z,20.51
2022-10-12T13:54:47.440Z,20.47
2022-10-12T13:57:40.776Z,20.28
2022-10-12T14:00:19.612Z,20.21
2022-10-12T14:03:02.207Z,20.17
2022-10-12T14:05:32.348Z,20.16
2022-10-12T14:08:11.580Z,20.11
2022-10-12T14:10:41.390Z,20.05
2022-10-12T14:13:15.223Z,20.10
2022-10-12T14:15:43.576Z,20.23
2022-10-12T14:18:40.668Z,20.26
2022-10-12T14:21:11.837Z,20.26
2022-10-12T14:23:45.609Z,20.24
2022-10-12T14:26:43.701Z,20.25
2022-10-12T14:29:33.334Z,20.27
2022-10-12T14:32:04.835Z,20.35
2022-10-12T14:34:36.829Z,20.39
2022-10-12T14:37:13.402Z,20.37
2022-10-12T14:39:42.944Z,20.31
2022-10-12T14:42:31.190Z,20.28
2022-10-12T14:44:59.748Z,20.32
2022-10-12T14:47:32.019Z,20.41
2022-10-12T14:50:01.495Z,20.53
2022-10-12T14:52:47.261Z,20.67
2022-10-12T14:55:16.491Z,20.76
2022-10-12T14:57:44.939Z,20.92
2022-10-12T15:00:18.365Z,21.43
2022-10-12T15:02:47.033Z,22.28
2022-10-12T15:05:17.734Z,23.18
2022-10-12T15:07:47.011Z,23.98
2022-10-12T15:10:16.112Z,24.49
2022-10-12T15:12:44.389Z,24.95
2022-10-12T15:15:29.067Z,25.31
2022-10-12T15:17:58.222Z,25.57
2022-10-12T15:20:27.393Z,25.68
2022-10-12T15:22:55.987Z,25.50
2022-10-12T15:25:46.120Z,25.27
2022-10-12T15:28:14.201Z,24.88
2022-10-12T15:31:04.170Z,24.55
2022-10-12T15:33:30.957Z,24.09
2022-10-12T15:35:58.789Z,23.58
2022-10-12T15:38:26.577Z,23.06
2022-10-12T15:40:58.039Z,22.51
2022-10-12T15:43:26.121Z,21.91
2022-10-12T15:45:56.573Z,21.20
2022-10-12T15:48:24.546Z,20.40
2022-10-12T15:50:52.437Z,19.61
2022-10-12T15:53:24.424Z,18.79
2022-10-12T15:55:53.948Z,17.90
2022-10-12T15:58:22.232Z,17.08
2022-10-12T16:00:50.502Z,16.25
2022-10-12T16:03:25.653Z,15.48
2022-10-12T16:05:54.686Z,14.77
2022-10-12T16:08:23.512Z,14.13
2022-10-12T16:10:51.706Z,13.52
2022-10-12T16:13:19.518Z,12.97
2022-10-12T16:15:47.438Z,12.51
2022-10-12T16:18:15.971Z,12.08
2022-10-12T16:20:47.568Z,11.67
2022-10-12T16:23:22.778Z,11.27
2022-10-12T16:25:51.107Z,10.93
2022-10-12T16:28:19.030Z,10.63
2022-10-12T16:30:46.919Z,10.37
2022-10-12T16:33:14.794Z,10.14
2022-10-12T16:35:42.702Z,10.31
2022-10-12T16:38:11.411Z,12.09
2022-10-12T16:40:40.102Z,13.29
2022-10-12T16:43:08.902Z,13.36
2022-10-12T16:45:36.827Z,12.51
2022-10-12T16:48:05.163Z,11.57
2022-10-12T16:50:33.059Z,10.90
2022-10-12T16:53:00.928Z,10.38
2022-10-12T16:55:28.830Z,10.36
2022-10-12T16:57:56.987Z,11.92
2022-10-12T17:00:25.385Z,12.92
2022-10-12T17:02:57.240Z,12.14
2022-10-12T17:05:25.616Z,11.15
2022-10-12T17:07:53.484Z,10.45
2022-10-12T17:10:21.318Z,10.29
2022-10-12T17:12:49.175Z,11.77
2022-10-12T17:15:17.246Z,12.77
2022-10-12T17:17:45.117Z,12.00
2022-10-12T17:20:12.953Z,11.02
2022-10-12T17:22:40.827Z,10.30
2022-10-12T17:25:09.474Z,10.33
2022-10-12T17:27:37.620Z,11.91
2022-10-12T17:30:05.834Z,12.83
2022-10-12T17:32:37.813Z,11.98
2022-10-12T17:35:06.034Z,10.92
2022-10-12T17:37:34.070Z,10.16
2022-10-12T17:40:02.938Z,10.10
2022-10-12T17:42:30.944Z,11.67
2022-10-12T17:44:58.863Z,12.68
2022-10-12T17:47:26.771Z,11.83
2022-10-12T17:49:54.603Z,10.74
2022-10-12T17:52:22.420Z,9.94
2022-10-12T17:54:50.301Z,10.08
2022-10-12T17:57:18.588Z,11.62
2022-10-12T17:59:46.672Z,12.45
2022-10-12T18:02:14.477Z,11.60
2022-10-12T18:04:42.366Z,10.57
2022-10-12T18:07:11.030Z,10.18
2022-10-12T18:09:39.015Z,11.58
2022-10-12T18:12:06.971Z,12.38
2022-10-12T18:14:34.946Z,11.50
2022-10-12T18:17:02.804Z,10.49
2022-10-12T18:19:30.663Z,9.76
2022-10-12T18:21:58.507Z,9.65
2022-10-12T18:24:26.497Z,11.15
2022-10-12T18:26:54.275Z,12.50
2022-10-12T18:29:22.676Z,12.95
2022-10-12T18:31:50.510Z,11.76
2022-10-12T18:34:18.395Z,10.64
2022-10-12T18:36:46.290Z,9.84
2022-10-12T18:39:14.346Z,9.76
2022-10-12T18:41:42.258Z,11.48
2022-10-12T18:44:11.141Z,12.96
2022-10-12T18:46:39.745Z,13.28
2022-10-12T18:49:10.304Z,12.06
2022-10-12T18:51:41.325Z,10.93
2022-10-12T18:54:13.118Z,10.13
2022-10-12T18:56:41.848Z,9.52
2022-10-12T18:59:11.612Z,9.46
2022-10-12T19:01:39.426Z,11.16
2022-10-12T19:04:08.182Z,12.69
2022-10-12T19:06:39.300Z,13.15
2022-10-12T19:09:07.463Z,11.95
2022-10-12T19:11:36.822Z,10.73
2022-10-12T19:14:13.713Z,9.85
2022-10-12T19:16:42.857Z,9.68
2022-10-12T19:19:19.657Z,11.30
2022-10-12T19:21:50.328Z,12.78
2022-10-12T19:24:19.234Z,13.14
2022-10-12T19:26:48.132Z,11.95
2022-10-12T19:29:16.231Z,10.77
2022-10-12T19:31:47.243Z,9.93
2022-10-12T19:34:18.169Z,9.33
2022-10-12T19:36:46.845Z,9.30
2022-10-12T19:39:24.347Z,11.05
2022-10-12T19:41:53.255Z,12.61
2022-10-12T19:44:21.438Z,12.96
2022-10-12T19:46:51.551Z,11.82
2022-10-12T19:49:19.793Z,10.69
2022-10-12T19:51:47.670Z,9.92
2022-10-12T19:54:16.262Z,9.38
2022-10-12T19:56:44.449Z,9.39
2022-10-12T19:59:12.947Z,11.01
2022-10-12T20:01:40.800Z,12.56
2022-10-12T20:04:11.961Z,12.97
2022-10-12T20:06:40.718Z,11.90
2022-10-12T20:09:09.948Z,10.85
2022-10-12T20:11:38.746Z,10.12
2022-10-12T20:14:07.182Z,9.60
2022-10-12T20:16:37.237Z,9.59
2022-10-12T20:19:07.367Z,11.30
2022-10-12T20:21:36.766Z,12.81
2022-10-12T20:24:07.876Z,13.25
2022-10-12T20:26:35.934Z,12.12
2022-10-12T20:29:04.002Z,11.02
2022-10-12T20:31:31.833Z,10.25
2022-10-12T20:34:00.044Z,9.68
2022-10-12T20:36:30.371Z,9.52
2022-10-12T20:38:59.842Z,10.89
2022-10-12T20:41:28.917Z,12.49
2022-10-12T20:43:58.431Z,13.10
2022-10-12T20:46:27.730Z,12.05
2022-10-12T20:48:58.930Z,10.95
2022-10-12T20:51:34.503Z,10.19
2022-10-12T20:54:05.280Z,9.63
2022-10-12T20:56:33.650Z,9.59
2022-10-12T20:59:01.852Z,11.16
2022-10-12T21:01:29.899Z,12.58
2022-10-12T21:03:58.087Z,13.11
2022-10-12T21:06:26.420Z,12.08
2022-10-12T21:08:56.418Z,10.96
2022-10-12T21:11:25.978Z,10.13
2022-10-12T21:13:54.713Z,9.55
2022-10-12T21:16:22.687Z,9.42
2022-10-12T21:18:54.341Z,10.91
2022-10-12T21:21:23.709Z,12.43
2022-10-12T21:23:57.975Z,12.84
2022-10-12T21:26:29.467Z,11.64
2022-10-12T21:29:00.582Z,10.52
2022-10-12T21:31:32.423Z,9.74
2022-10-12T21:34:03.369Z,9.56
2022-10-12T21:36:33.412Z,11.07
2022-10-12T21:39:01.308Z,12.52
2022-10-12T21:41:30.723Z,12.99
2022-10-12T21:43:59.103Z,11.94
2022-10-12T21:46:29.426Z,10.87
2022-10-12T21:48:57.760Z,10.10
2022-10-12T21:51:27.099Z,9.57
2022-10-12T21:53:55.422Z,9.63
2022-10-12T21:56:33.363Z,11.39
2022-10-12T21:59:02.850Z,12.86
2022-10-12T22:01:36.458Z,13.27
2022-10-12T22:04:07.397Z,12.13
2022-10-12T22:06:35.278Z,11.03
2022-10-12T22:09:11.568Z,10.28
2022-10-12T22:11:39.523Z,9.72
2022-10-12T22:14:13.475Z,9.72
2022-10-12T22:16:43.346Z,11.37
2022-10-12T22:19:15.301Z,12.81
2022-10-12T22:21:43.094Z,13.24
2022-10-12T22:24:10.933Z,12.19
2022-10-12T22:26:38.958Z,11.10
2022-10-12T22:29:08.714Z,10.34
2022-10-12T22:31:41.172Z,9.77
2022-10-12T22:34:11.586Z,9.81
2022-10-12T22:36:39.544Z,11.47
2022-10-12T22:39:07.647Z,12.87
2022-10-12T22:41:35.555Z,13.21
2022-10-12T22:44:03.492Z,12.16
2022-10-12T22:46:31.448Z,11.13
2022-10-12T22:48:59.318Z,10.40
2022-10-12T22:51:32.804Z,9.87
2022-10-12T22:54:01.345Z,9.88
2022-10-12T22:56:29.261Z,11.51
2022-10-12T22:58:59.206Z,13.00
2022-10-12T23:01:27.971Z,13.49
2022-10-12T23:03:56.534Z,12.44
2022-10-12T23:06:24.939Z,11.38
2022-10-12T23:08:52.799Z,10.62
2022-10-12T23:11:24.211Z,10.07
2022-10-12T23:13:53.287Z,10.02
2022-10-12T23:16:26.547Z,11.74
2022-10-12T23:18:59.877Z,13.21
2022-10-12T23:21:29.539Z,13.41
2022-10-12T23:23:59.559Z,12.26
2022-10-12T23:26:28.687Z,11.17
2022-10-12T23:28:57.003Z,10.45
2022-10-12T23:31:28.401Z,9.93
2022-10-12T23:34:04.778Z,9.95
2022-10-12T23:36:34.913Z,11.64
2022-10-12T23:39:04.834Z,13.04
2022-10-12T23:41:33.076Z,13.59
2022-10-12T23:44:01.006Z,12.52
2022-10-12T23:46:29.045Z,11.39
2022-10-12T23:48:58.632Z,10.59
2022-10-12T23:51:26.477Z,10.03
2022-10-12T23:53:54.284Z,10.02
2022-10-12T23:56:22.443Z,11.66
2022-10-12T23:58:50.265Z,13.11
